createdAt,value
2023-03-25T00:01:42.886Z,25.98
2023-03-25T00:04:13.153Z,23.35
2023-03-25T00:06:43.528Z,24.77
2023-03-25T00:09:13.932Z,27.05
2023-03-25T00:11:44.339Z,18.85
2023-03-25T00:14:18.537Z,22.83
2023-03-25T00:16:49.972Z,21.40
2023-03-25T00:19:27.231Z,22.85
2023-03-25T00:21:57.606Z,28.65
2023-03-25T00:24:28.038Z,25.83
2023-03-25T00:26:59.030Z,20.15
2023-03-25T00:29:29.378Z,22.63
2023-03-25T00:31:59.998Z,24.08
2023-03-25T00:34:30.467Z,23.42
2023-03-25T00:37:00.750Z,28.13
2023-03-25T00:39:31.886Z,26.05
2023-03-25T00:42:03.530Z,25.42
2023-03-25T00:44:34.198Z,20.80
2023-03-25T00:47:04.816Z,24.20
2023-03-25T00:49:35.250Z,19.20
2023-03-25T00:52:06.068Z,28.73
2023-03-25T00:54:36.501Z,27.50
2023-03-25T00:57:07.123Z,31.05
2023-03-25T00:59:37.737Z,29.05
2023-03-25T01:02:08.535Z,31.60
2023-03-25T01:04:42.812Z,30.02
2023-03-25T01:07:17.614Z,31.02
2023-03-25T01:09:49.406Z,34.65
2023-03-25T01:12:20.652Z,31.35
2023-03-25T01:14:51.042Z,30.40
2023-03-25T01:17:21.701Z,40.38
2023-03-25T01:19:53.191Z,39.25
2023-03-25T01:22:23.578Z,29.92
2023-03-25T01:24:53.797Z,28.85
2023-03-25T01:27:26.029Z,36.72
2023-03-25T01:29:57.227Z,26.33
2023-03-25T01:32:27.865Z,29.98
2023-03-25T01:34:58.344Z,35.17
2023-03-25T01:37:28.808Z,24.23
2023-03-25T01:39:59.228Z,28.45
2023-03-25T01:42:30.261Z,27.30
2023-03-25T01:45:23.933Z,30.25
2023-03-25T01:48:17.124Z,27.67
2023-03-25T01:50:55.013Z,27.05
2023-03-25T01:53:29.278Z,26.70
2023-03-25T01:56:03.929Z,32.03
2023-03-25T01:58:37.447Z,28.65
2023-03-25T02:01:08.691Z,25.67
2023-03-25T02:03:39.794Z,30.33
2023-03-25T02:06:16.518Z,27.75
2023-03-25T02:08:47.272Z,26.77
2023-03-25T02:11:17.716Z,24.73
2023-03-25T02:13:51.351Z,33.08
2023-03-25T02:16:32.576Z,29.02
2023-03-25T02:19:02.962Z,27.85
2023-03-25T02:22:09.041Z,34.55
2023-03-25T02:24:59.377Z,32.30
2023-03-25T02:28:00.800Z,28.65
2023-03-25T02:30:40.005Z,23.25
2023-03-25T02:33:35.052Z,33.20
2023-03-25T02:36:42.944Z,28.05
2023-03-25T02:39:22.702Z,23.30
2023-03-25T02:42:01.415Z,24.30
2023-03-25T02:45:03.761Z,26.42
2023-03-25T02:47:41.745Z,30.90
2023-03-25T02:50:32.524Z,30.02
2023-03-25T02:53:10.340Z,28.95
2023-03-25T02:55:44.409Z,34.33
2023-03-25T03:00:51.056Z,26.88
2023-03-25T03:03:22.425Z,28.77
2023-03-25T03:05:55.753Z,31.70
2023-03-25T03:08:51.537Z,30.23
2023-03-25T03:11:35.279Z,30.85
2023-03-25T03:14:55.313Z,27.17
2023-03-25T03:17:34.402Z,27.50
2023-03-25T03:20:22.349Z,26.52
2023-03-25T03:23:22.582Z,28.25
2023-03-25T03:25:55.837Z,28.55
2023-03-25T03:28:41.106Z,27.70
2023-03-25T03:31:48.870Z,26.92
2023-03-25T03:34:36.065Z,33.97
2023-03-25T03:37:08.505Z,28.13
2023-03-25T03:39:40.607Z,37.97
2023-03-25T03:42:31.974Z,31.33
2023-03-25T03:45:10.806Z,29.05
2023-03-25T03:47:45.709Z,35.25
2023-03-25T03:50:23.253Z,25.27
2023-03-25T03:53:24.671Z,26.60
2023-03-25T03:55:59.636Z,29.50
2023-03-25T03:58:46.007Z,29.10
2023-03-25T04:01:31.884Z,27.08
2023-03-25T04:04:03.898Z,28.05
2023-03-25T04:06:59.830Z,25.48
2023-03-25T04:09:45.622Z,26.23
2023-03-25T04:12:23.172Z,27.77
2023-03-25T04:14:54.483Z,26.23
2023-03-25T04:17:25.799Z,30.45
2023-03-25T04:19:56.992Z,31.17
2023-03-25T04:22:28.487Z,21.80
2023-03-25T04:25:01.806Z,26.38
2023-03-25T04:27:34.277Z,27.00
2023-03-25T04:30:04.700Z,30.17
2023-03-25T04:32:36.352Z,39.50
2023-03-25T04:35:07.091Z,26.65
2023-03-25T04:37:38.680Z,27.88
2023-03-25T04:40:10.778Z,27.13
2023-03-25T04:42:44.347Z,29.70
2023-03-25T04:45:18.200Z,26.38
2023-03-25T04:47:51.288Z,23.30
2023-03-25T04:50:27.599Z,21.35
2023-03-25T04:53:05.032Z,26.40
2023-03-25T04:55:36.183Z,25.92
2023-03-25T04:58:07.336Z,19.55
2023-03-25T05:00:37.740Z,25.90
2023-03-25T05:03:08.194Z,23.83
2023-03-25T05:05:39.006Z,22.00
2023-03-25T05:08:09.627Z,19.70
2023-03-25T05:10:40.446Z,22.65
2023-03-25T05:13:11.905Z,21.27
2023-03-25T05:15:42.599Z,21.80
2023-03-25T05:18:15.801Z,24.60
2023-03-25T05:23:20.487Z,20.75
2023-03-25T05:25:52.894Z,28.48
2023-03-25T05:28:24.357Z,26.27
2023-03-25T05:30:54.939Z,20.13
2023-03-25T05:33:25.297Z,19.50
2023-03-25T05:35:56.199Z,25.88
2023-03-25T05:38:26.607Z,21.63
2023-03-25T05:40:58.059Z,24.75
2023-03-25T05:43:28.400Z,25.83
2023-03-25T05:45:58.919Z,27.17
2023-03-25T05:48:33.815Z,24.52
2023-03-25T05:51:08.294Z,26.45
2023-03-25T05:53:38.984Z,24.00
2023-03-25T05:56:10.589Z,33.38
2023-03-25T05:58:41.214Z,24.80
2023-03-25T06:01:25.834Z,17.63
2023-03-25T06:04:03.817Z,22.60
2023-03-25T06:06:35.485Z,30.05
2023-03-25T06:09:06.000Z,26.10
2023-03-25T06:11:39.555Z,23.42
2023-03-25T06:14:10.761Z,22.85
2023-03-25T06:16:41.260Z,20.77
2023-03-25T06:19:12.075Z,31.10
2023-03-25T06:21:42.357Z,29.85
2023-03-25T06:24:12.776Z,27.95
2023-03-25T06:26:44.217Z,25.70
2023-03-25T06:29:14.625Z,27.33
2023-03-25T06:31:45.109Z,25.92
2023-03-25T06:34:15.565Z,19.73
2023-03-25T06:36:45.946Z,26.58
2023-03-25T06:39:16.320Z,22.48
2023-03-25T06:41:47.649Z,22.55
2023-03-25T06:44:25.105Z,24.95
2023-03-25T06:47:25.690Z,22.85
2023-03-25T06:49:56.341Z,18.23
2023-03-25T06:52:27.298Z,20.42
2023-03-25T06:54:57.960Z,25.65
2023-03-25T06:57:28.363Z,22.40
2023-03-25T06:59:59.171Z,21.35
2023-03-25T07:02:30.176Z,22.75
2023-03-25T07:05:00.681Z,20.63
2023-03-25T07:07:31.114Z,18.27
2023-03-25T07:10:01.836Z,18.23
2023-03-25T07:12:32.417Z,17.48
2023-03-25T07:15:03.462Z,18.52
2023-03-25T07:17:34.998Z,16.95
2023-03-25T07:20:07.772Z,21.60
2023-03-25T07:22:39.228Z,17.90
2023-03-25T07:25:09.825Z,16.73
2023-03-25T07:27:41.192Z,21.38
2023-03-25T07:30:16.896Z,18.88
2023-03-25T07:32:47.903Z,16.77
2023-03-25T07:35:18.459Z,20.45
2023-03-25T07:37:49.060Z,15.45
2023-03-25T07:40:19.661Z,16.02
2023-03-25T07:42:49.890Z,22.65
2023-03-25T07:45:43.842Z,17.27
2023-03-25T07:48:18.320Z,15.35
2023-03-25T07:50:50.885Z,16.77
2023-03-25T07:53:21.880Z,18.40
2023-03-25T07:55:55.335Z,17.50
2023-03-25T07:58:25.710Z,15.63
2023-03-25T08:00:59.627Z,18.02
2023-03-25T08:03:30.674Z,15.80
2023-03-25T08:06:03.980Z,21.02
2023-03-25T08:08:34.474Z,18.13
2023-03-25T08:11:05.555Z,16.15
2023-03-25T08:13:36.126Z,18.20
2023-03-25T08:16:14.184Z,17.38
2023-03-25T08:18:46.503Z,20.35
2023-03-25T08:21:17.592Z,20.35
2023-03-25T08:23:49.268Z,15.50
2023-03-25T08:26:19.951Z,19.30
2023-03-25T08:28:50.327Z,18.08
2023-03-25T08:31:22.274Z,16.50
2023-03-25T08:33:52.981Z,16.50
2023-03-25T08:36:24.688Z,19.50
2023-03-25T08:38:55.317Z,27.05
2023-03-25T08:41:26.434Z,22.55
2023-03-25T08:43:57.310Z,29.38
2023-03-25T08:46:27.649Z,28.45
2023-03-25T08:48:58.338Z,33.65
2023-03-25T08:51:28.657Z,26.42
2023-03-25T08:53:59.385Z,32.88
2023-03-25T08:56:30.385Z,38.05
2023-03-25T08:59:00.797Z,29.90
2023-03-25T09:01:31.277Z,23.00
2023-03-25T09:04:02.062Z,23.15
2023-03-25T09:06:48.092Z,26.05
2023-03-25T09:09:22.722Z,26.25
2023-03-25T09:11:53.106Z,21.85
2023-03-25T09:14:23.476Z,22.48
2023-03-25T09:16:53.858Z,25.38
2023-03-25T09:19:24.415Z,26.80
2023-03-25T09:21:55.320Z,29.20
2023-03-25T09:24:26.362Z,28.20
2023-03-25T09:26:56.906Z,25.77
2023-03-25T09:29:27.261Z,29.15
2023-03-25T09:31:59.901Z,25.88
2023-03-25T09:34:31.139Z,28.83
2023-03-25T09:37:02.699Z,24.17
2023-03-25T09:39:33.128Z,28.38
2023-03-25T09:42:27.355Z,27.60
2023-03-25T09:45:14.953Z,32.53
2023-03-25T09:47:57.217Z,21.55
2023-03-25T09:50:28.448Z,24.88
2023-03-25T09:53:27.496Z,27.38
2023-03-25T09:55:58.037Z,19.85
2023-03-25T09:58:34.435Z,22.77
2023-03-25T10:01:39.805Z,24.27
2023-03-25T10:04:30.796Z,20.08
2023-03-25T10:07:10.436Z,22.73
2023-03-25T10:09:53.252Z,22.40
2023-03-25T10:12:35.457Z,26.00
2023-03-25T10:15:12.274Z,29.33
2023-03-25T10:18:00.625Z,23.95
2023-03-25T10:20:56.043Z,25.23
2023-03-25T10:23:47.739Z,26.52
2023-03-25T10:26:54.968Z,27.02
2023-03-25T10:29:44.083Z,26.80
2023-03-25T10:32:20.436Z,28.33
2023-03-25T10:34:57.617Z,23.75
2023-03-25T10:37:37.185Z,26.40
2023-03-25T10:40:33.517Z,29.13
2023-03-25T10:43:36.285Z,22.50
2023-03-25T10:46:49.902Z,23.85
2023-03-25T10:49:25.464Z,26.02
2023-03-25T10:51:58.944Z,24.05
2023-03-25T10:54:34.858Z,24.40
2023-03-25T10:57:10.944Z,22.23
2023-03-25T11:00:08.054Z,21.60
2023-03-25T11:02:38.438Z,25.83
2023-03-25T11:05:10.931Z,25.58
2023-03-25T11:07:50.262Z,25.98
2023-03-25T11:10:20.613Z,28.23
2023-03-25T11:12:54.040Z,23.50
2023-03-25T11:15:39.978Z,28.83
2023-03-25T11:18:29.914Z,28.20
2023-03-25T11:21:09.519Z,28.05
2023-03-25T11:23:48.702Z,29.20
2023-03-25T11:26:26.436Z,24.90
2023-03-25T11:29:23.889Z,23.98
2023-03-25T11:32:24.849Z,22.20
2023-03-25T11:34:56.215Z,26.00
2023-03-25T11:37:26.740Z,28.27
2023-03-25T11:39:57.852Z,25.15
2023-03-25T11:42:35.416Z,24.98
2023-03-25T11:45:07.253Z,26.45
2023-03-25T11:47:42.858Z,21.00
2023-03-25T11:50:23.220Z,23.20
2023-03-25T11:53:03.212Z,22.45
2023-03-25T11:55:39.797Z,26.80
2023-03-25T11:58:17.929Z,26.13
2023-03-25T12:01:03.060Z,26.95
2023-03-25T12:03:36.763Z,20.13
2023-03-25T12:06:09.316Z,24.38
2023-03-25T12:08:54.968Z,28.85
2023-03-25T12:11:38.182Z,25.08
2023-03-25T12:14:45.908Z,24.50
2023-03-25T12:17:34.550Z,20.15
2023-03-25T12:20:33.746Z,24.48
2023-03-25T12:23:08.491Z,25.02
2023-03-25T12:25:48.938Z,24.52
2023-03-25T12:28:31.450Z,25.13
2023-03-25T12:31:38.212Z,31.23
2023-03-25T12:34:41.870Z,26.75
2023-03-25T12:37:42.648Z,27.58
2023-03-25T12:40:31.378Z,27.00
2023-03-25T12:43:07.936Z,25.42
2023-03-25T12:46:04.531Z,28.45
2023-03-25T12:49:07.483Z,27.08
2023-03-25T12:51:45.842Z,25.42
2023-03-25T12:54:40.983Z,27.17
2023-03-25T12:57:35.434Z,24.88
2023-03-25T13:00:24.657Z,21.95
2023-03-25T13:03:15.982Z,24.35
2023-03-25T13:06:17.911Z,27.08
2023-03-25T13:08:59.933Z,26.95
2023-03-25T13:11:35.590Z,24.45
2023-03-25T13:14:29.920Z,25.63
2023-03-25T13:17:05.144Z,25.33
2023-03-25T13:19:40.819Z,23.42
2023-03-25T13:22:26.259Z,22.38
2023-03-25T13:25:03.428Z,22.20
2023-03-25T13:27:38.335Z,24.30
2023-03-25T13:30:34.160Z,26.17
2023-03-25T13:33:15.331Z,20.48
2023-03-25T13:35:53.766Z,23.88
2023-03-25T13:38:35.492Z,21.50
2023-03-25T13:41:15.531Z,25.20
2023-03-25T13:44:14.696Z,18.48
2023-03-25T13:46:57.379Z,21.33
2023-03-25T13:49:43.830Z,22.73
2023-03-25T13:52:18.391Z,22.95
2023-03-25T13:54:59.361Z,18.65
2023-03-25T13:57:42.437Z,24.35
2023-03-25T14:00:26.234Z,26.25
2023-03-25T14:03:33.552Z,25.40
2023-03-25T14:06:33.008Z,23.35
2023-03-25T14:09:36.951Z,21.88
2023-03-25T14:14:49.648Z,19.95
2023-03-25T14:17:21.427Z,20.45
2023-03-25T14:19:59.782Z,22.67
2023-03-25T14:22:34.161Z,16.15
2023-03-25T14:25:04.982Z,23.90
2023-03-25T14:27:37.676Z,19.27
2023-03-25T14:30:21.795Z,18.73
2023-03-25T14:32:53.497Z,17.17
2023-03-25T14:35:36.208Z,17.63
2023-03-25T14:38:09.721Z,17.95
2023-03-25T14:41:02.135Z,20.40
2023-03-25T14:43:39.782Z,19.38
2023-03-25T14:46:20.732Z,23.13
2023-03-25T14:49:15.472Z,19.58
2023-03-25T14:51:51.943Z,19.63
2023-03-25T14:54:35.176Z,19.83
2023-03-25T14:57:10.273Z,19.98
2023-03-25T14:59:57.537Z,18.77
2023-03-25T15:02:34.572Z,22.48
2023-03-25T15:05:27.114Z,19.70
2023-03-25T15:08:11.129Z,17.73
2023-03-25T15:11:04.332Z,21.75
2023-03-25T15:13:57.939Z,19.80
2023-03-25T15:16:40.425Z,19.75
2023-03-25T15:19:15.040Z,17.20
2023-03-25T15:22:00.703Z,17.70
2023-03-25T15:24:35.007Z,23.33
2023-03-25T15:27:43.760Z,17.25
2023-03-25T15:30:57.466Z,20.23
2023-03-25T15:33:43.516Z,20.85
2023-03-25T15:36:53.781Z,21.02
2023-03-25T15:39:27.424Z,19.05
2023-03-25T15:42:06.550Z,19.52
2023-03-25T15:44:53.107Z,18.90
2023-03-25T15:47:52.697Z,21.33
2023-03-25T15:50:35.772Z,21.80
2023-03-25T15:53:05.989Z,16.67
2023-03-25T15:55:51.956Z,25.02
2023-03-25T15:58:39.777Z,21.52
2023-03-25T16:01:23.199Z,21.13
2023-03-25T16:04:18.904Z,20.23
2023-03-25T16:06:55.423Z,21.00
2023-03-25T16:09:30.272Z,21.10
2023-03-25T16:12:05.711Z,24.27
2023-03-25T16:14:38.142Z,21.55
2023-03-25T16:17:13.354Z,21.27
2023-03-25T16:22:34.265Z,18.90
2023-03-25T16:25:18.701Z,16.98
2023-03-25T16:27:54.265Z,25.13
2023-03-25T16:30:33.026Z,21.27
2023-03-25T16:33:12.737Z,19.58
2023-03-25T16:35:50.570Z,19.35
2023-03-25T16:38:24.235Z,20.20
2023-03-25T16:41:01.717Z,21.42
2023-03-25T16:43:33.068Z,18.17
2023-03-25T16:46:05.865Z,19.63
2023-03-25T16:48:51.322Z,24.88
2023-03-25T16:51:40.666Z,22.17
2023-03-25T16:54:22.338Z,17.23
2023-03-25T16:56:53.908Z,22.80
2023-03-25T16:59:31.953Z,28.15
2023-03-25T17:02:04.346Z,22.88
2023-03-25T17:07:22.240Z,18.67
2023-03-25T17:09:54.689Z,23.13
2023-03-25T17:12:26.303Z,19.63
2023-03-25T17:15:10.752Z,23.27
2023-03-25T17:17:52.596Z,17.65
2023-03-25T17:20:31.711Z,19.48
2023-03-25T17:23:12.208Z,18.23
2023-03-25T17:25:56.450Z,20.70
2023-03-25T17:28:53.057Z,19.92
2023-03-25T17:31:32.047Z,21.13
2023-03-25T17:34:23.835Z,17.73
2023-03-25T17:37:05.534Z,18.73
2023-03-25T17:39:38.127Z,20.58
2023-03-25T17:42:25.149Z,19.20
2023-03-25T17:44:56.233Z,18.20
2023-03-25T17:47:27.672Z,21.95
2023-03-25T17:50:00.450Z,19.27
2023-03-25T17:52:32.560Z,24.23
2023-03-25T17:55:03.529Z,22.63
2023-03-25T17:57:34.714Z,20.88
2023-03-25T18:00:13.657Z,20.65
2023-03-25T18:02:44.193Z,17.73
2023-03-25T18:05:15.275Z,24.02
2023-03-25T18:07:45.824Z,24.17
2023-03-25T18:10:22.739Z,17.73
2023-03-25T18:12:54.050Z,20.52
2023-03-25T18:15:24.626Z,18.98
2023-03-25T18:17:56.958Z,20.77
2023-03-25T18:20:34.143Z,24.15
2023-03-25T18:23:04.907Z,17.05
2023-03-25T18:25:35.683Z,19.67
2023-03-25T18:28:06.104Z,17.90
2023-03-25T18:30:51.047Z,24.50
2023-03-25T18:33:22.040Z,20.15
2023-03-25T18:35:54.029Z,17.88
2023-03-25T18:38:27.155Z,19.98
2023-03-25T18:40:58.906Z,21.10
2023-03-25T18:43:29.474Z,20.35
2023-03-25T18:46:00.231Z,22.63
2023-03-25T18:48:30.589Z,21.50
2023-03-25T18:51:02.351Z,19.35
2023-03-25T18:53:33.659Z,20.80
2023-03-25T18:56:04.336Z,19.38
2023-03-25T18:58:36.511Z,18.10
2023-03-25T19:01:09.109Z,21.20
2023-03-25T19:03:42.478Z,24.92
2023-03-25T19:06:15.501Z,23.70
2023-03-25T19:08:47.649Z,21.80
2023-03-25T19:11:21.628Z,19.58
2023-03-25T19:13:53.988Z,26.33
2023-03-25T19:16:24.590Z,21.60
2023-03-25T19:18:55.060Z,18.25
2023-03-25T19:21:25.443Z,21.00
2023-03-25T19:23:56.004Z,17.50
2023-03-25T19:26:26.709Z,16.65
2023-03-25T19:28:57.087Z,22.13
2023-03-25T19:31:28.151Z,21.80
2023-03-25T19:33:58.745Z,22.65
2023-03-25T19:36:29.342Z,23.17
2023-03-25T19:39:06.917Z,23.23
2023-03-25T19:41:43.591Z,21.40
2023-03-25T19:44:15.933Z,20.33
2023-03-25T19:46:46.501Z,19.30
2023-03-25T19:49:26.063Z,18.83
2023-03-25T19:52:03.845Z,21.63
2023-03-25T19:54:34.093Z,20.38
2023-03-25T19:57:04.462Z,20.63
2023-03-25T19:59:34.888Z,21.95
2023-03-25T20:02:05.568Z,23.48
2023-03-25T20:04:38.146Z,24.23
2023-03-25T20:07:08.512Z,17.40
2023-03-25T20:09:40.770Z,18.15
2023-03-25T20:14:42.360Z,19.45
2023-03-25T20:17:13.642Z,20.42
2023-03-25T20:19:44.063Z,18.27
2023-03-25T20:22:24.274Z,18.77
2023-03-25T20:24:57.072Z,18.73
2023-03-25T20:27:28.217Z,21.37
2023-03-25T20:29:59.082Z,17.80
2023-03-25T20:32:40.042Z,21.95
2023-03-25T20:35:14.474Z,19.10
2023-03-25T20:37:48.408Z,21.75
2023-03-25T20:40:25.372Z,21.70
2023-03-25T20:43:01.531Z,21.70
2023-03-25T20:45:32.138Z,16.75
2023-03-25T20:48:03.095Z,20.38
2023-03-25T20:50:34.000Z,18.70
2023-03-25T20:53:04.468Z,18.48
2023-03-25T20:55:35.543Z,18.25
2023-03-25T20:58:07.349Z,16.15
2023-03-25T21:00:38.218Z,16.77
2023-03-25T21:03:09.218Z,23.58
2023-03-25T21:05:42.461Z,18.65
2023-03-25T21:08:14.942Z,19.83
2023-03-25T21:10:50.130Z,19.05
2023-03-25T21:13:21.310Z,18.60
2023-03-25T21:15:56.246Z,23.02
2023-03-25T21:18:27.210Z,18.45
2023-03-25T21:21:00.095Z,14.85
2023-03-25T21:23:32.351Z,17.30
2023-03-25T21:26:10.703Z,18.70
2023-03-25T21:28:41.320Z,16.48
2023-03-25T21:31:20.320Z,16.10
2023-03-25T21:33:52.656Z,21.13
2023-03-25T21:36:25.834Z,17.50
2023-03-25T21:41:31.495Z,14.25
2023-03-25T21:44:02.216Z,17.60
2023-03-25T21:46:34.956Z,15.80
2023-03-25T21:49:05.468Z,15.60
2023-03-25T21:51:37.452Z,16.35
2023-03-25T21:54:07.966Z,14.98
2023-03-25T21:56:41.406Z,20.88
2023-03-25T21:59:13.413Z,20.50
2023-03-25T22:01:44.721Z,16.63
2023-03-25T22:04:15.257Z,14.80
2023-03-25T22:06:45.816Z,16.23
2023-03-25T22:09:16.891Z,12.93
2023-03-25T22:11:47.366Z,17.50
2023-03-25T22:14:17.854Z,18.80
2023-03-25T22:16:48.969Z,13.45
2023-03-25T22:19:19.556Z,18.95
2023-03-25T22:21:50.711Z,14.95
2023-03-25T22:24:21.137Z,22.15
2023-03-25T22:26:51.665Z,15.90
2023-03-25T22:29:22.387Z,17.48
2023-03-25T22:31:57.124Z,17.92
2023-03-25T22:34:30.214Z,15.00
2023-03-25T22:37:00.692Z,16.95
2023-03-25T22:39:31.270Z,18.05
2023-03-25T22:42:01.912Z,16.08
2023-03-25T22:44:32.477Z,17.27
2023-03-25T22:47:04.717Z,17.75
2023-03-25T22:49:35.112Z,19.92
2023-03-25T22:52:06.356Z,15.85
2023-03-25T22:54:38.046Z,14.63
2023-03-25T22:57:08.391Z,17.05
2023-03-25T22:59:40.620Z,20.20
2023-03-25T23:02:13.684Z,16.20
2023-03-25T23:04:44.492Z,15.75
2023-03-25T23:07:15.334Z,16.25
2023-03-25T23:09:46.563Z,12.98
2023-03-25T23:12:22.457Z,13.45
2023-03-25T23:14:57.000Z,13.18
2023-03-25T23:17:28.662Z,16.75
2023-03-25T23:19:59.884Z,17.25
2023-03-25T23:22:30.367Z,14.70
2023-03-25T23:25:00.780Z,17.20
2023-03-25T23:27:32.185Z,13.13
2023-03-25T23:30:04.564Z,17.38
2023-03-25T23:32:37.030Z,18.88
2023-03-25T23:35:08.059Z,16.67
2023-03-25T23:37:38.615Z,14.82
2023-03-25T23:40:10.022Z,17.55
2023-03-25T23:42:41.066Z,16.50
2023-03-25T23:45:12.310Z,14.45
2023-03-25T23:47:42.834Z,14.32
2023-03-25T23:50:19.431Z,14.25
2023-03-25T23:52:49.789Z,13.18
2023-03-25T23:55:22.140Z,18.58
2023-03-25T23:57:52.676Z,14.23
